Time;durP1;ratioP1;P1;durP2;ratioP2;P2;SDS_P1;SDS_P2;PMS_P1;PMS_P2;Temp;Humidity;BMP_temperature;BMP_pressure;BME280_temperature;BME280_humidity;BME280_pressure;Samples;Min_cycle;Max_cycle;Signal;HPM_P1;HPM_P2
2022/07/04 00:02:18;;;;;;;3.63;1.30;;;;;;;;;;4878480;29;20059;-66
2022/07/04 00:04:45;;;;;;;2.15;1.23;;;;;;;;;;4878837;29;20414;-66
2022/07/04 00:07:12;;;;;;;1.00;0.90;;;;;;;;;;4878836;29;20121;-66
2022/07/04 00:09:40;;;;;;;3.58;1.20;;;;;;;;;;4889786;29;20057;-66
2022/07/04 00:12:07;;;;;;;4.57;1.50;;;;;;;;;;4898557;29;20049;-66
2022/07/04 00:14:33;;;;;;;3.17;1.17;;;;;;;;;;4897775;29;20060;-67
2022/07/04 00:17:06;;;;;;;2.97;1.08;;;;;;;;;;4897106;29;20052;-66
2022/07/04 00:19:33;;;;;;;1.92;1.02;;;;;;;;;;4896907;29;20056;-66
2022/07/04 00:21:59;;;;;;;3.42;1.30;;;;;;;;;;4897092;29;20048;-66
2022/07/04 00:24:26;;;;;;;1.92;1.25;;;;;;;;;;4896989;29;20052;-66
2022/07/04 00:26:53;;;;;;;1.63;1.10;;;;;;;;;;4896927;29;20056;-67
2022/07/04 00:29:19;;;;;;;2.95;1.20;;;;;;;;;;4896571;29;20063;-66
2022/07/04 00:31:46;;;;;;;9.00;1.30;;;;;;;;;;4897032;29;20052;-66
2022/07/04 00:34:13;;;;;;;2.65;1.05;;;;;;;;;;4896650;29;20049;-67
2022/07/04 00:36:40;;;;;;;2.85;1.10;;;;;;;;;;4897012;29;20056;-66
2022/07/04 00:39:07;;;;;;;5.97;1.30;;;;;;;;;;4896578;29;20053;-67
2022/07/04 00:41:34;;;;;;;1.52;1.20;;;;;;;;;;4897036;29;20131;-66
2022/07/04 00:44:05;;;;;;;1.67;0.98;;;;;;;;;;4896678;29;20402;-67
2022/07/04 00:46:41;;;;;;;3.30;1.33;;;;;;;;;;4896837;29;20060;-66
2022/07/04 00:49:08;;;;;;;1.80;1.08;;;;;;;;;;4896560;29;20052;-66
2022/07/04 00:51:37;;;;;;;2.38;1.42;;;;;;;;;;4896745;29;20432;-66
2022/07/04 00:54:06;;;;;;;3.33;1.45;;;;;;;;;;4896611;29;20051;-66
2022/07/04 00:56:33;;;;;;;3.50;1.10;;;;;;;;;;4895166;29;20505;-66
2022/07/04 00:58:59;;;;;;;3.55;1.20;;;;;;;;;;4894888;29;20048;-67
2022/07/04 01:01:26;;;;;;;2.25;1.15;;;;;;;;;;4896625;29;20519;-66
2022/07/04 01:03:54;;;;;;;3.88;1.20;;;;;;;;;;4896753;29;20049;-66
2022/07/04 01:06:20;;;;;;;1.50;1.10;;;;;;;;;;4895542;29;20063;-66
2022/07/04 01:08:47;;;;;;;2.53;1.33;;;;;;;;;;4896269;29;20048;-66
2022/07/04 01:11:14;;;;;;;2.20;1.33;;;;;;;;;;4896646;29;20056;-66
2022/07/04 01:13:42;;;;;;;1.65;1.17;;;;;;;;;;4896404;29;20575;-66
2022/07/04 01:16:09;;;;;;;3.00;1.70;;;;;;;;;;4896426;29;20061;-66
2022/07/04 01:18:36;;;;;;;1.80;1.10;;;;;;;;;;4896195;29;20048;-66
2022/07/04 01:21:04;;;;;;;2.75;1.30;;;;;;;;;;4896261;29;20064;-66
2022/07/04 01:23:31;;;;;;;2.42;1.20;;;;;;;;;;4896278;29;20055;-66
2022/07/04 01:25:59;;;;;;;1.58;1.10;;;;;;;;;;4898049;29;20080;-67
2022/07/04 01:28:26;;;;;;;4.75;1.20;;;;;;;;;;4899734;29;20056;-66
2022/07/04 01:30:53;;;;;;;3.38;1.45;;;;;;;;;;4900141;29;20431;-66
2022/07/04 01:33:20;;;;;;;4.35;1.23;;;;;;;;;;4899871;29;20424;-66
2022/07/04 01:35:47;;;;;;;1.88;1.30;;;;;;;;;;4900204;29;20058;-66
2022/07/04 01:38:14;;;;;;;2.10;1.55;;;;;;;;;;4899795;29;20053;-66
2022/07/04 01:40:40;;;;;;;3.45;1.25;;;;;;;;;;4898600;29;20056;-67
2022/07/04 01:43:07;;;;;;;2.15;1.20;;;;;;;;;;4899971;29;20420;-66
2022/07/04 01:45:37;;;;;;;1.10;1.00;;;;;;;;;;4900243;29;20500;-66
2022/07/04 01:48:05;;;;;;;3.22;1.58;;;;;;;;;;4899448;29;20061;-66
2022/07/04 01:50:32;;;;;;;1.40;1.15;;;;;;;;;;4899739;29;20520;-66
2022/07/04 01:52:59;;;;;;;2.05;1.27;;;;;;;;;;4899788;29;20049;-66
2022/07/04 01:55:26;;;;;;;1.70;1.60;;;;;;;;;;4899809;29;20538;-66
2022/07/04 01:57:52;;;;;;;5.13;1.50;;;;;;;;;;4899532;29;20059;-66
2022/07/04 02:03:04;;;;;;;3.10;1.35;;;;;;;;;;4899501;29;20048;-65
2022/07/04 02:05:31;;;;;;;5.38;1.55;;;;;;;;;;4899632;29;20056;-66
2022/07/04 02:07:58;;;;;;;5.82;1.90;;;;;;;;;;4899389;29;20052;-66
2022/07/04 02:10:24;;;;;;;3.78;1.30;;;;;;;;;;4898179;29;20053;-66
2022/07/04 02:13:06;;;;;;;2.00;1.27;;;;;;;;;;4899286;29;20246;-66
2022/07/04 02:15:37;;;;;;;4.13;1.95;;;;;;;;;;4899463;29;20056;-66
2022/07/04 02:18:06;;;;;;;3.50;1.45;;;;;;;;;;4899264;29;20148;-66
2022/07/04 02:20:34;;;;;;;2.97;1.63;;;;;;;;;;4899039;29;20473;-66
2022/07/04 02:23:01;;;;;;;4.55;1.40;;;;;;;;;;4899103;29;20108;-66
2022/07/04 02:25:28;;;;;;;2.97;1.27;;;;;;;;;;4899022;29;20093;-66
2022/07/04 02:27:55;;;;;;;2.72;1.90;;;;;;;;;;4898893;29;20508;-66
2022/07/04 02:30:23;;;;;;;3.30;1.55;;;;;;;;;;4898770;29;20516;-66
2022/07/04 02:32:50;;;;;;;11.25;1.50;;;;;;;;;;4897711;29;20056;-67
2022/07/04 02:35:17;;;;;;;1.35;1.13;;;;;;;;;;4898992;29;20056;-66
2022/07/04 02:37:43;;;;;;;5.03;1.70;;;;;;;;;;4898341;29;20057;-66
2022/07/04 02:40:10;;;;;;;1.38;1.25;;;;;;;;;;4898441;29;20424;-66
2022/07/04 02:42:37;;;;;;;1.38;1.20;;;;;;;;;;4898945;29;20057;-66
2022/07/04 02:45:04;;;;;;;3.95;1.70;;;;;;;;;;4898674;29;20052;-66
2022/07/04 02:47:31;;;;;;;1.90;1.50;;;;;;;;;;4898838;29;20052;-66
2022/07/04 02:49:58;;;;;;;2.42;1.48;;;;;;;;;;4898470;29;20477;-66
2022/07/04 02:52:24;;;;;;;4.40;1.48;;;;;;;;;;4898524;29;20053;-67
2022/07/04 02:54:52;;;;;;;4.38;1.70;;;;;;;;;;4898533;29;20055;-66
2022/07/04 02:57:19;;;;;;;4.80;2.22;;;;;;;;;;4898697;29;20053;-67
2022/07/04 02:59:46;;;;;;;2.75;1.45;;;;;;;;;;4898362;29;20057;-66
2022/07/04 03:02:12;;;;;;;3.15;1.40;;;;;;;;;;4898575;29;20064;-66
2022/07/04 03:04:39;;;;;;;3.80;1.23;;;;;;;;;;4898385;29;20120;-66
2022/07/04 03:07:07;;;;;;;2.20;1.48;;;;;;;;;;4898084;29;20512;-66
2022/07/04 03:09:34;;;;;;;3.75;1.58;;;;;;;;;;4898287;29;20056;-66
2022/07/04 03:12:01;;;;;;;3.35;1.50;;;;;;;;;;4898491;29;20444;-66
2022/07/04 03:14:28;;;;;;;2.92;1.40;;;;;;;;;;4898153;29;20056;-67
2022/07/04 03:16:54;;;;;;;2.38;1.70;;;;;;;;;;4898314;29;20052;-66
2022/07/04 03:19:21;;;;;;;1.45;1.33;;;;;;;;;;4897934;29;20526;-66
2022/07/04 03:21:48;;;;;;;3.53;1.55;;;;;;;;;;4898411;29;20084;-66
2022/07/04 03:24:14;;;;;;;2.92;1.90;;;;;;;;;;4898205;29;20056;-66
2022/07/04 03:26:41;;;;;;;2.53;1.50;;;;;;;;;;4898025;29;20056;-66
2022/07/04 03:29:07;;;;;;;3.00;1.75;;;;;;;;;;4897561;29;20057;-66
2022/07/04 03:31:34;;;;;;;4.63;1.52;;;;;;;;;;4897922;29;20055;-66
2022/07/04 03:34:01;;;;;;;4.60;1.70;;;;;;;;;;4897900;29;20045;-66
2022/07/04 03:36:27;;;;;;;3.55;1.83;;;;;;;;;;4897680;29;20063;-66
2022/07/04 03:38:54;;;;;;;3.17;1.83;;;;;;;;;;4897767;29;20053;-66
2022/07/04 03:41:21;;;;;;;1.60;1.40;;;;;;;;;;4897858;29;20087;-67
2022/07/04 03:43:47;;;;;;;3.63;1.63;;;;;;;;;;4897672;29;20052;-67
2022/07/04 03:46:14;;;;;;;3.72;1.70;;;;;;;;;;4898049;29;20053;-67
2022/07/04 03:48:43;;;;;;;2.60;1.48;;;;;;;;;;4896716;29;20056;-68
2022/07/04 03:51:11;;;;;;;2.70;1.88;;;;;;;;;;4897282;29;20414;-68
2022/07/04 03:53:38;;;;;;;6.10;1.60;;;;;;;;;;4897719;29;20049;-67
2022/07/04 03:56:05;;;;;;;3.50;1.42;;;;;;;;;;4897596;29;20060;-67
2022/07/04 03:58:31;;;;;;;2.60;1.80;;;;;;;;;;4897221;29;20073;-67
2022/07/04 04:00:58;;;;;;;2.72;2.00;;;;;;;;;;4896509;29;20084;-68
2022/07/04 04:06:10;;;;;;;4.45;1.65;;;;;;;;;;4897482;29;20075;-67
2022/07/04 04:08:37;;;;;;;3.40;1.70;;;;;;;;;;4896976;29;20056;-67
2022/07/04 04:11:03;;;;;;;4.25;1.70;;;;;;;;;;4897147;29;20056;-67
2022/07/04 04:13:30;;;;;;;2.10;1.52;;;;;;;;;;4897049;29;20044;-67
2022/07/04 04:16:00;;;;;;;4.13;1.65;;;;;;;;;;4896847;29;20052;-67
2022/07/04 04:18:26;;;;;;;3.97;1.80;;;;;;;;;;4896873;29;20539;-67
2022/07/04 04:20:53;;;;;;;3.33;1.58;;;;;;;;;;4897039;29;20112;-65
2022/07/04 04:23:20;;;;;;;3.42;1.80;;;;;;;;;;4896840;29;20508;-66
2022/07/04 04:25:47;;;;;;;2.40;1.52;;;;;;;;;;4896858;29;20083;-65
2022/07/04 04:28:20;;;;;;;3.90;1.73;;;;;;;;;;4896623;29;20428;-66
2022/07/04 04:30:47;;;;;;;2.80;1.67;;;;;;;;;;4896786;29;20060;-65
2022/07/04 04:33:14;;;;;;;4.15;1.85;;;;;;;;;;4897050;29;20052;-66
2022/07/04 04:35:40;;;;;;;4.75;1.50;;;;;;;;;;4896980;29;20053;-66
2022/07/04 04:38:07;;;;;;;4.25;1.70;;;;;;;;;;4896859;29;20112;-65
2022/07/04 04:40:34;;;;;;;2.00;1.77;;;;;;;;;;4896530;29;20067;-65
2022/07/04 04:43:00;;;;;;;3.58;1.30;;;;;;;;;;4896517;29;20053;-66
2022/07/04 04:45:27;;;;;;;2.97;1.73;;;;;;;;;;4896636;29;20060;-66
2022/07/04 04:47:54;;;;;;;3.97;1.65;;;;;;;;;;4896718;29;20476;-66
2022/07/04 04:50:20;;;;;;;5.28;1.50;;;;;;;;;;4896711;29;20052;-66
2022/07/04 04:52:47;;;;;;;2.58;1.52;;;;;;;;;;4896741;29;20109;-67
2022/07/04 04:55:13;;;;;;;2.25;1.75;;;;;;;;;;4897155;29;20124;-66
2022/07/04 04:57:40;;;;;;;3.60;1.63;;;;;;;;;;4896562;29;20052;-66
2022/07/04 05:00:07;;;;;;;3.63;1.60;;;;;;;;;;4896517;29;20060;-66
2022/07/04 05:02:34;;;;;;;2.40;1.38;;;;;;;;;;4900718;29;20056;-66
2022/07/04 05:05:00;;;;;;;4.28;1.55;;;;;;;;;;4900538;29;20128;-66
2022/07/04 05:07:27;;;;;;;6.85;1.40;;;;;;;;;;4900512;29;20067;-66
2022/07/04 05:09:58;;;;;;;3.45;1.42;;;;;;;;;;4899997;29;20056;-66
2022/07/04 05:12:26;;;;;;;1.70;1.40;;;;;;;;;;4900668;29;20116;-66
2022/07/04 05:14:53;;;;;;;2.85;1.88;;;;;;;;;;4900493;29;20076;-66
2022/07/04 05:17:20;;;;;;;7.30;1.65;;;;;;;;;;4900439;29;20056;-66
2022/07/04 05:19:48;;;;;;;4.00;1.33;;;;;;;;;;4899860;29;20085;-66
2022/07/04 05:22:14;;;;;;;1.40;1.23;;;;;;;;;;4900069;29;20483;-66
2022/07/04 05:24:41;;;;;;;4.43;1.80;;;;;;;;;;4899890;29;20071;-66
2022/07/04 05:27:09;;;;;;;5.70;1.55;;;;;;;;;;4898191;29;20056;-66
2022/07/04 05:29:35;;;;;;;4.82;1.42;;;;;;;;;;4898043;29;20056;-65
2022/07/04 05:32:02;;;;;;;3.08;1.40;;;;;;;;;;4898185;29;20052;-65
2022/07/04 05:34:29;;;;;;;3.30;1.38;;;;;;;;;;4898580;29;20087;-65
2022/07/04 05:36:56;;;;;;;3.65;1.40;;;;;;;;;;4898691;29;20405;-65
2022/07/04 05:39:22;;;;;;;2.88;1.30;;;;;;;;;;4897087;29;20588;-65
2022/07/04 05:41:49;;;;;;;3.20;1.35;;;;;;;;;;4898022;29;20381;-69
2022/07/04 05:44:16;;;;;;;3.45;1.52;;;;;;;;;;4898107;29;20638;-69
2022/07/04 05:46:42;;;;;;;3.30;1.40;;;;;;;;;;4899240;29;20052;-65
2022/07/04 05:49:09;;;;;;;6.07;1.45;;;;;;;;;;4897518;29;20526;-66
2022/07/04 05:51:36;;;;;;;4.30;1.38;;;;;;;;;;4892196;29;20062;-66
2022/07/04 05:54:02;;;;;;;2.50;1.55;;;;;;;;;;4897027;29;20117;-66
2022/07/04 05:56:30;;;;;;;2.10;1.73;;;;;;;;;;4897566;29;20053;-66
2022/07/04 05:58:57;;;;;;;3.55;1.35;;;;;;;;;;4892573;29;20055;-66
2022/07/04 06:01:23;;;;;;;7.40;1.77;;;;;;;;;;4878760;29;20568;-65
2022/07/04 06:03:50;;;;;;;3.67;1.48;;;;;;;;;;4878793;29;20104;-64
2022/07/04 06:06:17;;;;;;;5.13;1.52;;;;;;;;;;4878090;29;20432;-64
2022/07/04 06:08:43;;;;;;;2.75;1.40;;;;;;;;;;4878613;29;20053;-65
2022/07/04 06:11:10;;;;;;;3.45;1.55;;;;;;;;;;4887666;29;20473;-64
2022/07/04 06:13:37;;;;;;;3.00;1.27;;;;;;;;;;4896441;29;20068;-66
2022/07/04 06:16:03;;;;;;;1.67;1.20;;;;;;;;;;4897394;29;20052;-66
2022/07/04 06:18:30;;;;;;;2.40;1.60;;;;;;;;;;4896476;29;20388;-65
2022/07/04 06:20:57;;;;;;;3.60;1.35;;;;;;;;;;4897021;29;20060;-66
2022/07/04 06:23:23;;;;;;;1.88;1.30;;;;;;;;;;4897467;29;20053;-64
2022/07/04 06:25:50;;;;;;;3.72;1.30;;;;;;;;;;4897178;29;20053;-65
2022/07/04 06:28:17;;;;;;;1.55;1.02;;;;;;;;;;4897084;29;20146;-65
2022/07/04 06:31:03;;;;;;;4.75;1.45;;;;;;;;;;4898775;29;20048;-65
2022/07/04 06:33:30;;;;;;;3.22;1.50;;;;;;;;;;4897451;29;20124;-66
2022/07/04 06:35:58;;;;;;;4.72;1.60;;;;;;;;;;4898456;29;20583;-65
2022/07/04 06:38:27;;;;;;;4.40;1.40;;;;;;;;;;4898724;29;20076;-65
2022/07/04 06:40:55;;;;;;;3.95;1.38;;;;;;;;;;4898802;29;20523;-65
2022/07/04 06:43:22;;;;;;;2.75;1.30;;;;;;;;;;4898748;29;20056;-65
2022/07/04 06:45:48;;;;;;;2.60;1.30;;;;;;;;;;4897102;29;20508;-65
2022/07/04 06:48:15;;;;;;;7.85;1.80;;;;;;;;;;4895885;29;20049;-65
2022/07/04 06:50:43;;;;;;;2.75;1.15;;;;;;;;;;4897220;29;20052;-65
2022/07/04 06:53:10;;;;;;;4.72;1.48;;;;;;;;;;4897699;29;20504;-65
2022/07/04 06:55:38;;;;;;;3.75;1.20;;;;;;;;;;4897067;29;20432;-65
2022/07/04 06:58:06;;;;;;;2.33;1.55;;;;;;;;;;4896574;29;20044;-65
2022/07/04 07:00:33;;;;;;;3.45;1.88;;;;;;;;;;4899772;29;20472;-65
2022/07/04 07:03:00;;;;;;;5.63;2.05;;;;;;;;;;4900159;29;20056;-65
2022/07/04 07:05:28;;;;;;;2.33;1.40;;;;;;;;;;4898027;29;20116;-65
2022/07/04 07:08:15;;;;;;;2.90;1.55;;;;;;;;;;4897996;29;20081;-65
2022/07/04 07:10:41;;;;;;;2.50;1.48;;;;;;;;;;4898089;29;20131;-66
2022/07/04 07:13:08;;;;;;;2.88;1.35;;;;;;;;;;4898206;29;20057;-65
2022/07/04 07:15:35;;;;;;;5.13;1.52;;;;;;;;;;4898090;29;20052;-65
2022/07/04 07:18:05;;;;;;;2.67;1.38;;;;;;;;;;4897951;29;20145;-64
2022/07/04 07:20:31;;;;;;;2.85;1.10;;;;;;;;;;4897482;29;20056;-65
2022/07/04 07:22:58;;;;;;;2.80;1.63;;;;;;;;;;4892824;29;20049;-64
2022/07/04 07:25:25;;;;;;;1.83;1.40;;;;;;;;;;4879114;29;20524;-67
2022/07/04 07:27:51;;;;;;;2.67;1.30;;;;;;;;;;4894886;29;20055;-67
2022/07/04 07:30:18;;;;;;;1.80;1.20;;;;;;;;;;4897673;29;20052;-67
2022/07/04 07:32:45;;;;;;;4.85;1.50;;;;;;;;;;4896839;29;20045;-67
2022/07/04 07:35:12;;;;;;;4.00;1.10;;;;;;;;;;4893382;29;20060;-67
2022/07/04 07:37:38;;;;;;;2.88;1.25;;;;;;;;;;4896016;29;20060;-67
2022/07/04 07:40:06;;;;;;;3.38;1.58;;;;;;;;;;4896431;29;20053;-67
2022/07/04 07:42:33;;;;;;;4.40;1.65;;;;;;;;;;4897712;29;20108;-66
2022/07/04 07:45:00;;;;;;;1.50;1.35;;;;;;;;;;4898210;29;20049;-67
2022/07/04 07:47:27;;;;;;;2.30;1.08;;;;;;;;;;4897825;29;20063;-66
2022/07/04 07:49:53;;;;;;;3.65;1.40;;;;;;;;;;4897209;29;20061;-69
2022/07/04 07:52:20;;;;;;;2.33;1.23;;;;;;;;;;4897731;29;20052;-67
2022/07/04 07:54:52;;;;;;;1.98;1.20;;;;;;;;;;4897665;29;20132;-70
2022/07/04 07:57:27;;;;;;;2.67;1.38;;;;;;;;;;4897775;29;20057;-70
2022/07/04 07:59:54;;;;;;;5.75;2.03;;;;;;;;;;4897372;29;20068;-67
2022/07/04 08:04:33;;;;;;;2.70;1.15;;;;;;;;;;4898143;29;20056;-69
2022/07/04 08:05:08;;;;;;;5.35;1.65;;;;;;;;;;4898388;29;20052;-67
2022/07/04 08:07:35;;;;;;;1.70;1.23;;;;;;;;;;4897850;29;20567;-68
2022/07/04 08:10:02;;;;;;;1.60;1.15;;;;;;;;;;4897063;29;20154;-66
2022/07/04 08:12:29;;;;;;;1.90;1.10;;;;;;;;;;4896155;29;20057;-67
2022/07/04 08:14:55;;;;;;;2.45;1.48;;;;;;;;;;4891062;29;20559;-64
2022/07/04 08:17:28;;;;;;;3.65;1.65;;;;;;;;;;4891356;29;20423;-64
2022/07/04 08:19:54;;;;;;;2.17;1.30;;;;;;;;;;4891464;29;20048;-67
2022/07/04 08:22:21;;;;;;;2.95;1.60;;;;;;;;;;4884326;29;20060;-65
2022/07/04 08:24:48;;;;;;;6.18;1.60;;;;;;;;;;4883690;29;20048;-65
2022/07/04 08:27:14;;;;;;;2.70;1.50;;;;;;;;;;4884575;29;20568;-66
2022/07/04 08:29:41;;;;;;;2.55;1.50;;;;;;;;;;4885280;29;20432;-66
2022/07/04 08:32:09;;;;;;;3.75;1.50;;;;;;;;;;4885152;29;20056;-66
2022/07/04 08:34:36;;;;;;;4.78;1.50;;;;;;;;;;4886092;29;20045;-66
2022/07/04 08:37:03;;;;;;;4.43;1.25;;;;;;;;;;4886482;29;20140;-65
2022/07/04 08:39:30;;;;;;;3.10;1.50;;;;;;;;;;4883422;29;20144;-65
2022/07/04 08:41:59;;;;;;;3.10;1.70;;;;;;;;;;4884656;29;20049;-65
2022/07/04 08:44:28;;;;;;;1.92;1.35;;;;;;;;;;4876483;29;20060;-67
2022/07/04 08:46:54;;;;;;;2.35;1.50;;;;;;;;;;4884880;29;20337;-65
2022/07/04 08:49:22;;;;;;;2.17;1.42;;;;;;;;;;4885049;29;20508;-68
2022/07/04 08:51:54;;;;;;;3.42;1.48;;;;;;;;;;4894358;29;20052;-71
2022/07/04 08:59:55;;;;;;;4.95;1.95;;;;;;;;;;4884084;29;20056;-65
2022/07/04 09:02:22;;;;;;;3.25;1.58;;;;;;;;;;4885062;29;20049;-75
2022/07/04 09:04:50;;;;;;;5.50;1.67;;;;;;;;;;4886512;29;20072;-71
2022/07/04 09:07:18;;;;;;;4.55;1.83;;;;;;;;;;4893947;29;20058;-65
2022/07/04 09:09:45;;;;;;;3.63;1.48;;;;;;;;;;4887049;29;20056;-66
2022/07/04 09:12:17;;;;;;;5.53;1.48;;;;;;;;;;4882331;29;20059;-65
2022/07/04 09:14:44;;;;;;;6.85;2.15;;;;;;;;;;4886409;29;20048;-66
2022/07/04 09:17:11;;;;;;;3.95;1.95;;;;;;;;;;4892401;29;20055;-65
2022/07/04 09:19:38;;;;;;;7.10;1.77;;;;;;;;;;4892003;29;20057;-65
2022/07/04 09:22:12;;;;;;;5.03;2.05;;;;;;;;;;4888890;29;20056;-66
2022/07/04 09:24:50;;;;;;;2.13;1.60;;;;;;;;;;4885569;29;20076;-66
2022/07/04 09:27:34;;;;;;;3.92;1.50;;;;;;;;;;4886660;29;20049;-67
2022/07/04 09:30:01;;;;;;;2.22;1.50;;;;;;;;;;4888880;29;20056;-66
2022/07/04 09:32:44;;;;;;;1.92;1.50;;;;;;;;;;4887697;29;20419;-66
2022/07/04 09:35:15;;;;;;;16.77;2.22;;;;;;;;;;4889060;29;20441;-66
2022/07/04 09:37:51;;;;;;;4.43;1.58;;;;;;;;;;4883067;29;20056;-66
2022/07/04 09:40:32;;;;;;;4.20;2.03;;;;;;;;;;4882232;29;20061;-65
2022/07/04 09:43:00;;;;;;;4.60;1.98;;;;;;;;;;4888853;29;20060;-66
2022/07/04 09:45:28;;;;;;;4.13;1.52;;;;;;;;;;4891804;29;20053;-66
2022/07/04 09:47:56;;;;;;;3.00;1.70;;;;;;;;;;4898732;29;20537;-66
2022/07/04 09:50:25;;;;;;;1.95;1.35;;;;;;;;;;4895338;29;20057;-66
2022/07/04 09:52:57;;;;;;;3.08;1.40;;;;;;;;;;4888155;29;20465;-66
2022/07/04 09:55:31;;;;;;;5.72;2.20;;;;;;;;;;4890934;29;20461;-66
2022/07/04 09:58:00;;;;;;;7.50;2.67;;;;;;;;;;4890130;29;20440;-66
2022/07/04 10:00:29;;;;;;;3.15;1.80;;;;;;;;;;4891863;29;20057;-67
2022/07/04 10:02:57;;;;;;;7.65;2.10;;;;;;;;;;4888131;29;20049;-66
2022/07/04 10:05:27;;;;;;;3.25;1.45;;;;;;;;;;4894081;29;20055;-67
2022/07/04 10:07:55;;;;;;;2.90;1.77;;;;;;;;;;4889874;29;20119;-66
2022/07/04 10:10:31;;;;;;;2.15;1.40;;;;;;;;;;4888675;29;20065;-66
2022/07/04 10:13:03;;;;;;;3.67;1.80;;;;;;;;;;4886710;29;20052;-66
2022/07/04 10:15:30;;;;;;;3.03;1.67;;;;;;;;;;4886984;29;20048;-65
2022/07/04 10:17:57;;;;;;;6.25;1.92;;;;;;;;;;4885444;29;20056;-70
2022/07/04 10:20:24;;;;;;;2.72;1.30;;;;;;;;;;4892914;29;20053;-68
2022/07/04 10:22:51;;;;;;;2.67;1.40;;;;;;;;;;4884974;29;20056;-65
2022/07/04 10:25:18;;;;;;;2.88;1.50;;;;;;;;;;4895294;29;20052;-66
2022/07/04 10:27:45;;;;;;;3.33;1.65;;;;;;;;;;4889850;29;20124;-66
2022/07/04 10:30:16;;;;;;;4.13;1.65;;;;;;;;;;4888192;29;20048;-66
2022/07/04 10:32:46;;;;;;;4.65;1.60;;;;;;;;;;4879893;29;20056;-66
2022/07/04 10:35:14;;;;;;;2.78;1.27;;;;;;;;;;4886175;29;20053;-76
2022/07/04 10:38:07;;;;;;;3.13;1.60;;;;;;;;;;4894926;29;20057;-65
2022/07/04 10:41:02;;;;;;;2.40;0.93;;;;;;;;;;4886034;29;20052;-67
2022/07/04 10:46:05;;;;;;;2.42;1.70;;;;;;;;;;4886007;29;20049;-76
2022/07/04 10:48:32;;;;;;;2.03;1.35;;;;;;;;;;4891026;29;20116;-73
2022/07/04 10:51:08;;;;;;;1.80;1.20;;;;;;;;;;4886646;29;20057;-72
2022/07/04 10:53:58;;;;;;;4.22;1.48;;;;;;;;;;4887928;29;20056;-74
2022/07/04 10:56:25;;;;;;;2.55;1.23;;;;;;;;;;4890444;29;20135;-67
2022/07/04 10:58:54;;;;;;;4.38;1.75;;;;;;;;;;4890734;29;20063;-71
2022/07/04 11:01:20;;;;;;;3.47;1.20;;;;;;;;;;4892003;29;20044;-71
2022/07/04 11:03:49;;;;;;;1.08;1.00;;;;;;;;;;4883560;29;20505;-69
2022/07/04 11:06:43;;;;;;;1.85;1.20;;;;;;;;;;4886489;29;20457;-70
2022/07/04 11:09:16;;;;;;;1.52;1.15;;;;;;;;;;4889483;29;20053;-69
2022/07/04 11:11:52;;;;;;;;;;;;;;;;;;4892734;29;20079;-71
2022/07/04 11:17:47;;;;;;;1.20;1.00;;;;;;;;;;4893277;29;20052;-67
2022/07/04 11:20:14;;;;;;;4.82;1.30;;;;;;;;;;4885929;29;20053;-66
2022/07/04 11:22:41;;;;;;;1.85;1.02;;;;;;;;;;4892273;29;20068;-71
2022/07/04 11:25:07;;;;;;;1.92;1.10;;;;;;;;;;4885544;29;20049;-65
2022/07/04 11:27:34;;;;;;;1.83;1.05;;;;;;;;;;4885818;29;20476;-65
2022/07/04 11:30:01;;;;;;;3.35;1.30;;;;;;;;;;4887672;29;20056;-65
2022/07/04 11:32:31;;;;;;;5.15;1.20;;;;;;;;;;4883948;29;20060;-65
2022/07/04 11:34:57;;;;;;;2.33;1.50;;;;;;;;;;4885756;29;20059;-65
2022/07/04 11:37:24;;;;;;;2.78;1.13;;;;;;;;;;4884011;29;20108;-64
2022/07/04 11:39:51;;;;;;;2.58;1.17;;;;;;;;;;4885812;29;20059;-65
2022/07/04 11:45:07;;;;;;;3.28;1.17;;;;;;;;;;4886944;29;20063;-64
2022/07/04 11:47:37;;;;;;;2.15;1.23;;;;;;;;;;4887923;29;20062;-65
2022/07/04 11:50:05;;;;;;;1.75;1.05;;;;;;;;;;4908423;29;20424;-65
2022/07/04 11:52:37;;;;;;;5.05;2.08;;;;;;;;;;4886452;29;20144;-65
2022/07/04 11:55:24;;;;;;;3.35;1.17;;;;;;;;;;4889828;29;20045;-65
2022/07/04 11:57:55;;;;;;;3.00;1.55;;;;;;;;;;4889728;29;20064;-64
2022/07/04 12:00:26;;;;;;;4.45;1.17;;;;;;;;;;4886395;29;20401;-65
2022/07/04 12:02:53;;;;;;;2.75;1.35;;;;;;;;;;4885603;29;20402;-65
2022/07/04 12:05:19;;;;;;;3.85;1.50;;;;;;;;;;4884713;29;20053;-65
2022/07/04 12:07:48;;;;;;;3.55;1.25;;;;;;;;;;4891980;29;20055;-64
2022/07/04 12:10:35;;;;;;;3.67;1.48;;;;;;;;;;4890151;29;20108;-65
2022/07/04 12:13:07;;;;;;;3.92;1.48;;;;;;;;;;4885551;29;20330;-65
2022/07/04 12:15:43;;;;;;;2.22;1.60;;;;;;;;;;4885149;29;20143;-64
2022/07/04 12:18:16;;;;;;;3.35;1.02;;;;;;;;;;4883818;29;20139;-64
2022/07/04 12:20:43;;;;;;;3.58;1.10;;;;;;;;;;4885004;29;20057;-64
2022/07/04 12:23:10;;;;;;;1.27;0.88;;;;;;;;;;4885289;29;20060;-65
2022/07/04 12:25:38;;;;;;;1.38;0.90;;;;;;;;;;4882966;29;20049;-64
2022/07/04 12:28:13;;;;;;;2.60;1.52;;;;;;;;;;4885198;29;20063;-64
2022/07/04 12:30:51;;;;;;;1.70;1.35;;;;;;;;;;4883972;29;20061;-64
2022/07/04 12:33:23;;;;;;;3.17;0.98;;;;;;;;;;4891233;29;20064;-64
2022/07/04 12:35:58;;;;;;;2.03;0.90;;;;;;;;;;4885007;29;20048;-64
2022/07/04 12:38:28;;;;;;;1.10;0.90;;;;;;;;;;4883217;29;20053;-65
2022/07/04 12:41:12;;;;;;;2.38;0.90;;;;;;;;;;4887541;29;20052;-64
2022/07/04 12:43:39;;;;;;;5.05;1.13;;;;;;;;;;4884181;29;20057;-65
2022/07/04 12:46:10;;;;;;;3.95;1.42;;;;;;;;;;4885721;29;20108;-64
2022/07/04 12:48:38;;;;;;;4.33;1.57;;;;;;;;;;4891042;29;20108;-65
2022/07/04 12:51:19;;;;;;;1.67;1.00;;;;;;;;;;4892587;29;20064;-66
2022/07/04 12:53:47;;;;;;;2.35;1.15;;;;;;;;;;4889022;29;20060;-65
2022/07/04 12:56:34;;;;;;;0.80;0.80;;;;;;;;;;4892570;29;20053;-65
2022/07/04 12:59:07;;;;;;;1.90;1.00;;;;;;;;;;4892555;29;20729;-64
2022/07/04 13:01:38;;;;;;;2.08;0.90;;;;;;;;;;4891796;29;20053;-65
2022/07/04 13:04:05;;;;;;;3.67;0.82;;;;;;;;;;4890685;29;20052;-64
2022/07/04 13:06:33;;;;;;;2.95;0.70;;;;;;;;;;4892516;29;20048;-64
2022/07/04 13:09:00;;;;;;;2.05;0.95;;;;;;;;;;4894346;29;20062;-65
2022/07/04 13:14:12;;;;;;;3.00;1.00;;;;;;;;;;4882694;29;20079;-66
2022/07/04 13:16:39;;;;;;;1.27;0.98;;;;;;;;;;4886012;29;20052;-66
2022/07/04 13:19:06;;;;;;;3.65;0.95;;;;;;;;;;4882824;29;20055;-64
2022/07/04 13:21:33;;;;;;;2.08;0.80;;;;;;;;;;4888740;29;20063;-66
2022/07/04 13:24:00;;;;;;;1.52;0.70;;;;;;;;;;4887239;29;20052;-66
2022/07/04 13:26:28;;;;;;;2.25;0.82;;;;;;;;;;4887282;29;20084;-66
2022/07/04 13:28:54;;;;;;;1.00;0.80;;;;;;;;;;4887120;29;20489;-65
2022/07/04 13:31:21;;;;;;;3.00;0.88;;;;;;;;;;4889743;29;20060;-67
2022/07/04 13:33:47;;;;;;;1.98;1.02;;;;;;;;;;4888182;29;20059;-68
2022/07/04 13:36:14;;;;;;;1.98;0.88;;;;;;;;;;4885413;29;20505;-67
2022/07/04 13:38:41;;;;;;;2.42;1.10;;;;;;;;;;4887895;29;20045;-66
2022/07/04 13:41:28;;;;;;;3.58;0.90;;;;;;;;;;4888077;29;20052;-66
2022/07/04 13:43:56;;;;;;;1.42;1.17;;;;;;;;;;4886193;29;20053;-66
2022/07/04 13:46:23;;;;;;;1.15;0.82;;;;;;;;;;4888357;29;20048;-66
2022/07/04 13:48:50;;;;;;;2.25;1.13;;;;;;;;;;4885259;29;20056;-67
2022/07/04 13:51:17;;;;;;;1.50;0.70;;;;;;;;;;4893108;29;20083;-66
2022/07/04 13:53:44;;;;;;;2.42;0.90;;;;;;;;;;4886175;29;20394;-65
2022/07/04 13:56:12;;;;;;;2.67;0.82;;;;;;;;;;4894450;29;20429;-66
2022/07/04 13:58:38;;;;;;;2.22;1.00;;;;;;;;;;4887703;29;20501;-66
2022/07/04 14:01:05;;;;;;;0.77;0.68;;;;;;;;;;4889976;29;20049;-67
2022/07/04 14:03:37;;;;;;;1.20;0.80;;;;;;;;;;4887353;29;20107;-67
2022/07/04 14:06:04;;;;;;;1.73;0.75;;;;;;;;;;4891959;29;20063;-67
2022/07/04 14:08:31;;;;;;;1.42;1.10;;;;;;;;;;4895965;29;20056;-67
2022/07/04 14:10:58;;;;;;;2.38;1.02;;;;;;;;;;4894180;29;20052;-66
2022/07/04 14:13:26;;;;;;;3.22;0.90;;;;;;;;;;4888527;29;20056;-67
2022/07/04 14:15:52;;;;;;;1.42;1.00;;;;;;;;;;4885634;29;20052;-67
2022/07/04 14:18:20;;;;;;;1.88;1.20;;;;;;;;;;4886527;29;20053;-67
2022/07/04 14:20:50;;;;;;;4.40;2.40;;;;;;;;;;4888526;29;20053;-67
2022/07/04 14:23:39;;;;;;;4.53;1.63;;;;;;;;;;4891372;29;20049;-67
2022/07/04 14:26:04;;;;;;;3.17;1.23;;;;;;;;;;4891317;29;20059;-67
2022/07/04 14:28:32;;;;;;;1.80;1.30;;;;;;;;;;4890857;29;20052;-67
2022/07/04 14:30:59;;;;;;;2.00;1.38;;;;;;;;;;4888875;29;20055;-67
2022/07/04 14:33:26;;;;;;;2.72;1.08;;;;;;;;;;4888275;29;20138;-67
2022/07/04 14:35:52;;;;;;;1.50;0.90;;;;;;;;;;4909343;29;20045;-68
2022/07/04 14:38:19;;;;;;;2.30;1.13;;;;;;;;;;4892714;29;20564;-67
2022/07/04 14:40:49;;;;;;;3.92;1.55;;;;;;;;;;4889207;29;20052;-69
2022/07/04 14:43:19;;;;;;;1.98;1.27;;;;;;;;;;4895560;29;20087;-67
2022/07/04 14:45:46;;;;;;;5.50;1.23;;;;;;;;;;4886310;29;20056;-68
2022/07/04 14:48:14;;;;;;;5.25;1.40;;;;;;;;;;4886689;29;20052;-68
2022/07/04 14:50:41;;;;;;;2.63;1.00;;;;;;;;;;4887204;29;20096;-67
2022/07/04 14:53:07;;;;;;;1.88;1.15;;;;;;;;;;4887001;29;20060;-67
2022/07/04 14:55:37;;;;;;;2.42;0.98;;;;;;;;;;4886081;29;20420;-68
2022/07/04 14:58:04;;;;;;;3.15;1.30;;;;;;;;;;4886318;29;20111;-68
2022/07/04 15:00:31;;;;;;;2.95;1.40;;;;;;;;;;4885628;29;20057;-67
2022/07/04 15:02:58;;;;;;;2.17;1.17;;;;;;;;;;4886199;29;20063;-69
2022/07/04 15:05:24;;;;;;;1.67;0.90;;;;;;;;;;4884392;29;20069;-68
2022/07/04 15:07:53;;;;;;;4.55;1.42;;;;;;;;;;4885965;29;20048;-68
2022/07/04 15:10:20;;;;;;;3.53;0.95;;;;;;;;;;4886557;29;20052;-67
2022/07/04 15:13:07;;;;;;;1.55;1.15;;;;;;;;;;4886372;29;20117;-70
2022/07/04 15:15:33;;;;;;;3.00;1.20;;;;;;;;;;4887629;29;20591;-66